createdAt,value
2022-12-20T00:02:11.306Z,5.31
2022-12-20T00:04:38.035Z,5.34
2022-12-20T00:07:04.785Z,5.31
2022-12-20T00:09:31.501Z,5.30
2022-12-20T00:11:58.962Z,5.24
2022-12-20T00:14:25.617Z,5.13
2022-12-20T00:16:52.249Z,5.13
2022-12-20T00:19:18.961Z,5.21
2022-12-20T00:21:45.585Z,5.30
2022-12-20T00:24:12.276Z,5.19
2022-12-20T00:26:38.933Z,4.98
2022-12-20T00:29:05.628Z,5.11
2022-12-20T00:31:32.449Z,5.17
2022-12-20T00:33:59.144Z,5.24
2022-12-20T00:36:25.827Z,5.22
2022-12-20T00:38:52.472Z,5.29
2022-12-20T00:41:19.176Z,5.34
2022-12-20T00:43:45.844Z,5.48
2022-12-20T00:46:12.510Z,5.43
2022-12-20T00:48:39.216Z,5.02
2022-12-20T00:51:05.858Z,4.83
2022-12-20T00:53:32.505Z,5.03
2022-12-20T00:55:59.157Z,5.15
2022-12-20T00:58:25.851Z,5.15
2022-12-20T01:00:56.502Z,4.97
2022-12-20T01:03:23.982Z,5.09
2022-12-20T01:05:50.719Z,5.02
2022-12-20T01:08:17.411Z,5.17
2022-12-20T01:10:44.065Z,5.23
2022-12-20T01:13:10.753Z,5.20
2022-12-20T01:15:37.500Z,5.18
2022-12-20T01:18:04.205Z,5.24
2022-12-20T01:20:30.870Z,5.33
2022-12-20T01:22:57.565Z,5.32
2022-12-20T01:25:24.282Z,5.27
2022-12-20T01:27:54.074Z,5.29
2022-12-20T01:30:20.808Z,5.12
2022-12-20T01:32:47.488Z,5.09
2022-12-20T01:35:14.180Z,4.99
2022-12-20T01:37:40.884Z,4.78
2022-12-20T01:40:07.596Z,4.92
2022-12-20T01:42:34.356Z,5.08
2022-12-20T01:45:01.052Z,5.25
2022-12-20T01:47:27.727Z,5.31
2022-12-20T01:49:54.404Z,5.24
2022-12-20T01:52:21.100Z,4.93
2022-12-20T01:54:47.798Z,4.83
2022-12-20T01:57:14.604Z,4.85
2022-12-20T01:59:41.325Z,4.41
2022-12-20T02:02:08.082Z,4.04
2022-12-20T02:04:34.846Z,4.24
2022-12-20T02:07:01.516Z,4.43
2022-12-20T02:09:28.247Z,4.34
2022-12-20T02:11:54.982Z,4.58
2022-12-20T02:14:21.602Z,4.81
2022-12-20T02:16:49.593Z,4.52
2022-12-20T02:19:16.259Z,4.50
2022-12-20T02:21:42.964Z,4.23
2022-12-20T02:24:09.825Z,4.34
2022-12-20T02:26:36.459Z,4.23
2022-12-20T02:29:03.257Z,4.12
2022-12-20T02:31:29.984Z,4.30
2022-12-20T02:33:59.015Z,4.49
2022-12-20T02:36:25.655Z,4.76
2022-12-20T02:38:52.298Z,4.57
2022-12-20T02:41:18.958Z,4.18
2022-12-20T02:43:45.691Z,3.55
2022-12-20T02:46:12.412Z,3.49
2022-12-20T02:48:39.120Z,3.69
2022-12-20T02:51:05.823Z,4.16
2022-12-20T02:53:32.512Z,4.49
2022-12-20T02:55:59.157Z,4.65
2022-12-20T02:58:25.971Z,4.30
2022-12-20T03:00:52.645Z,4.34
2022-12-20T03:03:19.331Z,4.50
2022-12-20T03:05:46.100Z,4.60
2022-12-20T03:08:12.762Z,4.78
2022-12-20T03:10:39.432Z,4.91
2022-12-20T03:13:06.091Z,4.87
2022-12-20T03:15:32.828Z,4.76
2022-12-20T03:17:59.576Z,4.78
2022-12-20T03:20:26.300Z,4.62
2022-12-20T03:22:53.016Z,4.25
2022-12-20T03:25:19.684Z,4.38
2022-12-20T03:27:46.367Z,4.17
2022-12-20T03:30:13.092Z,4.09
2022-12-20T03:32:39.753Z,4.30
2022-12-20T03:35:06.494Z,4.30
2022-12-20T03:37:33.150Z,3.89
2022-12-20T03:39:59.860Z,4.01
2022-12-20T03:42:26.568Z,4.01
2022-12-20T03:44:53.294Z,4.16
2022-12-20T03:47:20.017Z,4.42
2022-12-20T03:49:46.741Z,4.38
2022-12-20T03:52:13.365Z,4.60
2022-12-20T03:54:40.091Z,4.54
2022-12-20T03:57:06.783Z,4.04
2022-12-20T03:59:33.618Z,3.95
2022-12-20T04:02:00.457Z,4.07
2022-12-20T04:04:27.250Z,4.49
2022-12-20T04:06:53.992Z,4.30
2022-12-20T04:09:20.671Z,4.03
2022-12-20T04:11:47.344Z,3.74
2022-12-20T04:14:14.013Z,4.08
2022-12-20T04:16:40.808Z,4.05
2022-12-20T04:19:07.702Z,3.86
2022-12-20T04:21:34.428Z,4.02
2022-12-20T04:24:01.120Z,4.04
2022-12-20T04:26:27.755Z,4.20
2022-12-20T04:28:54.416Z,4.22
2022-12-20T04:31:24.182Z,4.36
2022-12-20T04:33:51.176Z,4.34
2022-12-20T04:36:17.898Z,4.36
2022-12-20T04:38:44.593Z,4.56
2022-12-20T04:41:11.206Z,4.62
2022-12-20T04:43:37.923Z,4.73
2022-12-20T04:46:04.603Z,4.79
2022-12-20T04:48:56.067Z,4.62
2022-12-20T04:51:17.909Z,4.56
2022-12-20T04:53:44.629Z,4.44
2022-12-20T04:56:11.303Z,3.97
2022-12-20T04:58:37.928Z,3.97
2022-12-20T05:01:04.635Z,4.24
2022-12-20T05:03:31.395Z,4.05
2022-12-20T05:05:58.108Z,3.98
2022-12-20T05:08:24.766Z,4.15
2022-12-20T05:10:51.463Z,4.34
2022-12-20T05:13:18.124Z,4.54
2022-12-20T05:15:44.862Z,4.54
2022-12-20T05:18:11.569Z,4.04
2022-12-20T05:20:38.226Z,4.08
2022-12-20T05:23:04.896Z,3.85
2022-12-20T05:25:31.654Z,3.67
2022-12-20T05:27:58.367Z,3.86
2022-12-20T05:30:25.023Z,3.96
2022-12-20T05:32:51.727Z,3.92
2022-12-20T05:35:18.411Z,3.92
2022-12-20T05:37:45.238Z,3.83
2022-12-20T05:40:11.921Z,3.78
2022-12-20T05:42:38.586Z,3.67
2022-12-20T05:45:05.311Z,3.61
2022-12-20T05:47:32.019Z,3.82
2022-12-20T05:49:58.731Z,3.98
2022-12-20T05:52:25.435Z,3.92
2022-12-20T05:54:52.112Z,4.02
2022-12-20T05:57:18.758Z,3.93
2022-12-20T05:59:45.430Z,4.04
2022-12-20T06:02:12.280Z,3.77
2022-12-20T06:04:39.066Z,3.66
2022-12-20T06:07:05.787Z,3.51
2022-12-20T06:09:32.509Z,3.45
2022-12-20T06:11:59.186Z,3.31
2022-12-20T06:14:25.838Z,3.72
2022-12-20T06:16:52.611Z,3.80
2022-12-20T06:19:21.678Z,3.77
2022-12-20T06:21:48.603Z,3.47
2022-12-20T06:24:15.250Z,3.66
2022-12-20T06:26:41.939Z,3.56
2022-12-20T06:29:08.640Z,3.83
2022-12-20T06:31:35.348Z,3.67
2022-12-20T06:34:02.034Z,3.63
2022-12-20T06:36:28.718Z,3.48
2022-12-20T06:38:55.405Z,3.50
2022-12-20T06:41:22.142Z,3.62
2022-12-20T06:43:48.826Z,3.86
2022-12-20T06:46:15.567Z,4.12
2022-12-20T06:48:42.313Z,3.80
2022-12-20T06:51:09.031Z,3.97
2022-12-20T06:53:35.845Z,4.33
2022-12-20T06:56:02.538Z,4.30
2022-12-20T06:58:29.229Z,4.10
2022-12-20T07:00:56.030Z,4.15
2022-12-20T07:03:22.884Z,3.88
2022-12-20T07:05:49.663Z,3.21
2022-12-20T07:08:16.406Z,3.24
2022-12-20T07:10:43.132Z,3.59
2022-12-20T07:13:10.123Z,3.88
2022-12-20T07:15:36.812Z,3.86
2022-12-20T07:18:03.637Z,3.73
2022-12-20T07:20:30.424Z,3.57
2022-12-20T07:22:57.241Z,3.77
2022-12-20T07:25:23.925Z,3.82
2022-12-20T07:27:51.454Z,3.76
2022-12-20T07:30:18.131Z,4.11
2022-12-20T07:32:44.844Z,4.30
2022-12-20T07:35:11.560Z,4.44
2022-12-20T07:37:38.224Z,4.57
2022-12-20T07:40:04.895Z,4.40
2022-12-20T07:42:36.092Z,4.54
2022-12-20T07:45:06.272Z,4.75
2022-12-20T07:47:32.934Z,4.79
2022-12-20T07:49:59.593Z,4.64
2022-12-20T07:52:26.344Z,4.71
2022-12-20T07:54:53.055Z,4.56
2022-12-20T07:57:19.804Z,4.41
2022-12-20T07:59:46.671Z,4.19
2022-12-20T08:02:13.618Z,4.24
2022-12-20T08:04:40.441Z,3.98
2022-12-20T08:07:07.151Z,3.68
2022-12-20T08:09:33.821Z,3.66
2022-12-20T08:12:00.547Z,3.52
2022-12-20T08:14:27.282Z,3.59
2022-12-20T08:16:54.099Z,3.70
2022-12-20T08:19:20.861Z,3.68
2022-12-20T08:21:47.639Z,3.73
2022-12-20T08:24:14.327Z,3.84
2022-12-20T08:26:41.030Z,3.93
2022-12-20T08:29:07.714Z,4.03
2022-12-20T08:31:34.414Z,3.99
2022-12-20T08:34:01.069Z,4.19
2022-12-20T08:36:27.766Z,4.49
2022-12-20T08:38:54.455Z,4.67
2022-12-20T08:41:21.161Z,4.64
2022-12-20T08:43:47.835Z,4.44
2022-12-20T08:46:14.565Z,4.29
2022-12-20T08:48:41.283Z,4.41
2022-12-20T08:51:08.026Z,4.48
2022-12-20T08:53:34.743Z,4.63
2022-12-20T08:56:01.433Z,4.65
2022-12-20T08:58:28.079Z,4.79
2022-12-20T09:00:55.707Z,4.21
2022-12-20T09:03:22.487Z,4.20
2022-12-20T09:05:49.189Z,4.23
2022-12-20T09:08:15.882Z,4.32
2022-12-20T09:10:42.538Z,4.28
2022-12-20T09:13:09.246Z,4.21
2022-12-20T09:15:35.931Z,4.29
2022-12-20T09:18:02.676Z,4.19
2022-12-20T09:20:29.310Z,4.43
2022-12-20T09:22:56.005Z,4.17
2022-12-20T09:25:22.706Z,3.65
2022-12-20T09:27:49.396Z,3.96
2022-12-20T09:30:16.087Z,3.77
2022-12-20T09:32:42.757Z,3.75
2022-12-20T09:35:09.487Z,3.31
2022-12-20T09:37:36.196Z,3.11
2022-12-20T09:40:02.875Z,3.40
2022-12-20T09:42:29.591Z,3.54
2022-12-20T09:44:56.300Z,3.60
2022-12-20T09:47:22.944Z,3.71
2022-12-20T09:49:49.638Z,4.26
2022-12-20T09:52:16.374Z,4.18
2022-12-20T09:54:43.113Z,4.03
2022-12-20T09:57:09.788Z,4.23
2022-12-20T09:59:40.375Z,4.16
2022-12-20T10:02:44.092Z,4.19
2022-12-20T10:04:55.792Z,4.21
2022-12-20T10:07:22.559Z,4.28
2022-12-20T10:09:49.230Z,4.22
2022-12-20T10:12:15.876Z,4.31
2022-12-20T10:14:42.582Z,4.61
2022-12-20T10:17:09.285Z,4.21
2022-12-20T10:19:36.008Z,4.14
2022-12-20T10:22:02.622Z,4.29
2022-12-20T10:24:29.305Z,4.25
2022-12-20T10:26:56.032Z,4.15
2022-12-20T10:29:22.711Z,4.31
2022-12-20T10:31:49.445Z,4.17
2022-12-20T10:34:16.177Z,3.99
2022-12-20T10:36:42.837Z,3.97
2022-12-20T10:39:09.469Z,3.91
2022-12-20T10:41:36.135Z,3.83
2022-12-20T10:44:02.841Z,4.04
2022-12-20T10:46:29.618Z,4.09
2022-12-20T10:48:56.356Z,4.10
2022-12-20T10:51:23.045Z,4.15
2022-12-20T10:53:49.715Z,3.91
2022-12-20T10:56:16.404Z,4.26
2022-12-20T10:58:43.060Z,3.90
2022-12-20T11:01:09.795Z,4.24
2022-12-20T11:03:36.624Z,4.78
2022-12-20T11:06:04.254Z,4.89
2022-12-20T11:08:40.444Z,4.99
2022-12-20T11:11:11.819Z,4.38
2022-12-20T11:13:38.472Z,4.78
2022-12-20T11:16:05.123Z,4.97
2022-12-20T11:18:31.866Z,5.22
2022-12-20T11:20:58.561Z,5.24
2022-12-20T11:23:25.177Z,5.24
2022-12-20T11:25:51.836Z,5.04
2022-12-20T11:28:18.489Z,4.94
2022-12-20T11:30:45.417Z,4.44
2022-12-20T11:33:12.116Z,4.19
2022-12-20T11:35:38.801Z,4.19
2022-12-20T11:38:09.564Z,4.58
2022-12-20T11:40:36.517Z,4.59
2022-12-20T11:43:03.950Z,4.53
2022-12-20T11:45:30.631Z,4.39
2022-12-20T11:47:57.474Z,3.94
2022-12-20T11:50:24.106Z,3.78
2022-12-20T11:52:50.772Z,3.81
2022-12-20T11:55:17.479Z,3.91
2022-12-20T11:58:16.494Z,3.83
2022-12-20T12:00:30.796Z,3.85
2022-12-20T12:02:58.741Z,4.23
2022-12-20T12:05:25.735Z,4.59
2022-12-20T12:07:52.452Z,4.59
2022-12-20T12:10:19.097Z,4.57
2022-12-20T12:12:46.083Z,4.11
2022-12-20T12:15:16.316Z,4.17
2022-12-20T12:17:43.832Z,3.98
2022-12-20T12:20:10.489Z,4.27
2022-12-20T12:22:37.211Z,4.80
2022-12-20T12:25:03.871Z,4.38
2022-12-20T12:27:30.572Z,4.45
2022-12-20T12:29:57.252Z,4.01
2022-12-20T12:32:24.867Z,4.08
2022-12-20T12:34:51.558Z,3.97
2022-12-20T12:37:18.366Z,3.66
2022-12-20T12:39:45.319Z,3.75
2022-12-20T12:42:12.089Z,4.03
2022-12-20T12:44:38.755Z,4.18
2022-12-20T12:47:05.469Z,4.09
2022-12-20T12:49:32.117Z,3.95
2022-12-20T12:51:58.915Z,3.49
2022-12-20T12:54:25.685Z,3.78
2022-12-20T12:56:52.478Z,3.67
2022-12-20T12:59:19.331Z,3.57
2022-12-20T13:01:46.144Z,4.22
2022-12-20T13:04:13.048Z,4.38
2022-12-20T13:06:39.731Z,4.01
2022-12-20T13:09:06.377Z,4.08
2022-12-20T13:11:33.003Z,4.37
2022-12-20T13:13:59.673Z,4.80
2022-12-20T13:16:48.217Z,4.99
2022-12-20T13:19:12.958Z,5.12
2022-12-20T13:21:39.717Z,4.90
2022-12-20T13:24:09.277Z,4.52
2022-12-20T13:26:35.995Z,4.43
2022-12-20T13:29:02.722Z,4.78
2022-12-20T13:31:29.689Z,4.59
2022-12-20T13:33:56.403Z,4.41
2022-12-20T13:36:23.094Z,3.85
2022-12-20T13:38:49.766Z,3.81
2022-12-20T13:41:16.476Z,3.65
2022-12-20T13:43:43.131Z,4.03
2022-12-20T13:46:09.793Z,4.45
2022-12-20T13:48:36.494Z,4.92
2022-12-20T13:51:03.187Z,5.16
2022-12-20T13:53:29.819Z,4.97
2022-12-20T13:55:56.493Z,5.15
2022-12-20T13:58:23.136Z,5.04
2022-12-20T14:00:49.958Z,4.88
2022-12-20T14:03:16.955Z,4.78
2022-12-20T14:05:43.766Z,5.11
2022-12-20T14:08:10.802Z,5.27
2022-12-20T14:10:37.437Z,5.41
2022-12-20T14:13:04.109Z,5.58
2022-12-20T14:15:30.738Z,5.58
2022-12-20T14:17:57.398Z,5.32
2022-12-20T14:20:24.055Z,5.31
2022-12-20T14:22:50.699Z,5.36
2022-12-20T14:25:17.395Z,5.44
2022-12-20T14:27:44.069Z,5.40
2022-12-20T14:30:10.708Z,5.44
2022-12-20T14:32:37.387Z,4.74
2022-12-20T14:35:04.027Z,4.25
2022-12-20T14:37:30.662Z,4.66
2022-12-20T14:39:57.309Z,4.84
2022-12-20T14:42:23.973Z,4.78
2022-12-20T14:44:50.702Z,4.97
2022-12-20T14:47:17.404Z,5.02
2022-12-20T14:49:44.276Z,4.27
2022-12-20T14:52:10.878Z,4.08
2022-12-20T14:55:06.937Z,4.13
2022-12-20T14:57:24.260Z,4.20
2022-12-20T14:59:50.931Z,4.32
2022-12-20T15:02:17.664Z,4.12
2022-12-20T15:04:44.479Z,4.01
2022-12-20T15:07:11.171Z,3.92
2022-12-20T15:09:37.833Z,4.04
2022-12-20T15:12:04.717Z,4.24
2022-12-20T15:14:31.351Z,4.35
2022-12-20T15:16:58.006Z,4.33
2022-12-20T15:19:24.705Z,4.42
2022-12-20T15:21:51.459Z,4.70
2022-12-20T15:24:18.101Z,4.83
2022-12-20T15:26:44.804Z,4.82
2022-12-20T15:29:11.676Z,4.69
2022-12-20T15:31:38.347Z,4.92
2022-12-20T15:34:04.991Z,5.06
2022-12-20T15:36:31.727Z,5.16
2022-12-20T15:39:14.726Z,5.20
2022-12-20T15:41:42.020Z,4.94
2022-12-20T15:44:08.936Z,4.97
2022-12-20T15:46:35.640Z,5.13
2022-12-20T15:49:02.310Z,5.14
2022-12-20T15:51:28.968Z,5.11
2022-12-20T15:53:55.691Z,5.19
2022-12-20T15:56:22.323Z,5.21
2022-12-20T15:58:48.947Z,5.29
2022-12-20T16:01:15.656Z,5.25
2022-12-20T16:03:42.632Z,5.15
2022-12-20T16:06:09.460Z,5.10
2022-12-20T16:08:36.145Z,5.08
2022-12-20T16:11:02.839Z,4.57
2022-12-20T16:13:29.585Z,4.45
2022-12-20T16:15:56.512Z,4.26
2022-12-20T16:18:23.199Z,4.55
2022-12-20T16:20:49.909Z,4.82
2022-12-20T16:23:16.580Z,4.87
2022-12-20T16:25:43.205Z,5.08
2022-12-20T16:28:10.648Z,5.16
2022-12-20T16:30:37.339Z,4.87
2022-12-20T16:33:04.010Z,4.79
2022-12-20T16:35:30.684Z,4.99
2022-12-20T16:37:57.343Z,5.09
2022-12-20T16:40:24.007Z,5.17
2022-12-20T16:42:50.686Z,5.10
2022-12-20T16:45:17.394Z,4.74
2022-12-20T16:47:44.027Z,4.40
2022-12-20T16:50:10.757Z,4.40
2022-12-20T16:52:37.488Z,4.19
2022-12-20T16:55:04.168Z,4.61
2022-12-20T16:57:30.892Z,4.81
2022-12-20T16:59:57.616Z,4.62
2022-12-20T17:02:24.370Z,4.73
2022-12-20T17:04:51.268Z,4.98
2022-12-20T17:07:17.899Z,5.14
2022-12-20T17:12:28.607Z,4.88
2022-12-20T17:14:55.299Z,4.90
2022-12-20T17:17:22.046Z,5.10
2022-12-20T17:19:48.731Z,5.17
2022-12-20T17:22:24.665Z,5.22
2022-12-20T17:24:51.468Z,5.23
2022-12-20T17:27:18.174Z,5.15
2022-12-20T17:29:44.819Z,4.67
2022-12-20T17:32:11.547Z,4.78
2022-12-20T17:34:38.240Z,4.98
2022-12-20T17:37:04.887Z,5.14
2022-12-20T17:39:31.530Z,5.27
2022-12-20T17:41:58.190Z,5.31
2022-12-20T17:44:24.845Z,5.30
2022-12-20T17:46:51.500Z,5.35
2022-12-20T17:49:18.229Z,5.25
2022-12-20T17:51:44.936Z,5.39
2022-12-20T17:54:11.595Z,5.35
2022-12-20T17:56:38.325Z,5.20
2022-12-20T17:59:05.015Z,5.02
2022-12-20T18:01:31.881Z,5.20
2022-12-20T18:04:04.091Z,5.35
2022-12-20T18:06:31.532Z,5.30
2022-12-20T18:08:58.213Z,5.43
2022-12-20T18:11:24.934Z,5.40
2022-12-20T18:13:51.593Z,5.36
2022-12-20T18:16:18.262Z,5.34
2022-12-20T18:18:44.933Z,5.45
2022-12-20T18:21:11.577Z,5.39
2022-12-20T18:23:38.285Z,5.43
2022-12-20T18:26:04.986Z,5.47
2022-12-20T18:28:31.775Z,5.32
2022-12-20T18:30:58.506Z,5.29
2022-12-20T18:33:25.171Z,5.06
2022-12-20T18:35:51.813Z,5.26
2022-12-20T18:38:18.528Z,4.61
2022-12-20T18:40:45.227Z,4.67
2022-12-20T18:43:11.904Z,4.86
2022-12-20T18:45:38.694Z,5.00
2022-12-20T18:48:05.737Z,5.19
2022-12-20T18:50:32.441Z,5.20
2022-12-20T18:53:01.608Z,5.15
2022-12-20T18:55:28.615Z,5.25
2022-12-20T18:57:55.333Z,4.90
2022-12-20T19:00:21.993Z,4.69
2022-12-20T19:02:48.771Z,4.98
2022-12-20T19:05:15.540Z,5.27
2022-12-20T19:07:42.270Z,5.25
2022-12-20T19:10:09.128Z,5.28
2022-12-20T19:12:35.786Z,5.10
2022-12-20T19:15:02.532Z,5.04
2022-12-20T19:17:29.162Z,5.04
2022-12-20T19:19:55.871Z,5.10
2022-12-20T19:22:22.558Z,4.93
2022-12-20T19:24:49.305Z,4.93
2022-12-20T19:27:15.932Z,4.74
2022-12-20T19:29:42.606Z,4.87
2022-12-20T19:32:09.361Z,4.50
2022-12-20T19:34:35.997Z,4.58
2022-12-20T19:37:02.720Z,4.69
2022-12-20T19:39:29.476Z,4.76
2022-12-20T19:44:43.421Z,4.89
2022-12-20T19:47:10.110Z,5.05
2022-12-20T19:49:36.956Z,4.82
2022-12-20T19:52:03.704Z,5.05
2022-12-20T19:54:30.430Z,5.10
2022-12-20T19:56:57.117Z,5.16
2022-12-20T19:59:23.845Z,4.93
2022-12-20T20:01:50.635Z,4.86
2022-12-20T20:04:17.360Z,4.92
2022-12-20T20:06:44.141Z,5.01
2022-12-20T20:09:10.836Z,5.09
2022-12-20T20:11:37.498Z,4.93
2022-12-20T20:14:04.193Z,4.85
2022-12-20T20:16:30.931Z,5.04
2022-12-20T20:18:57.687Z,5.19
2022-12-20T20:21:24.393Z,4.91
2022-12-20T20:23:51.113Z,4.63
2022-12-20T20:26:17.847Z,4.67
2022-12-20T20:28:45.669Z,4.74
2022-12-20T20:31:12.564Z,4.92
2022-12-20T20:33:39.318Z,5.00
2022-12-20T20:36:06.094Z,4.82
2022-12-20T20:38:32.762Z,4.41
2022-12-20T20:40:59.469Z,4.54
2022-12-20T20:43:26.208Z,4.87
2022-12-20T20:45:52.901Z,5.01
2022-12-20T20:48:19.598Z,5.12
2022-12-20T20:50:46.254Z,5.20
2022-12-20T20:53:12.883Z,5.22
2022-12-20T20:55:39.621Z,5.12
2022-12-20T20:58:06.324Z,5.19
2022-12-20T21:00:32.991Z,5.00
2022-12-20T21:02:59.841Z,5.06
2022-12-20T21:08:13.364Z,4.82
2022-12-20T21:10:40.105Z,4.39
2022-12-20T21:13:06.800Z,4.51
2022-12-20T21:15:33.459Z,4.52
2022-12-20T21:18:00.156Z,4.71
2022-12-20T21:20:26.883Z,4.92
2022-12-20T21:22:53.551Z,5.09
2022-12-20T21:25:20.226Z,4.88
2022-12-20T21:27:46.923Z,4.93
2022-12-20T21:30:13.641Z,4.79
2022-12-20T21:32:40.494Z,4.76
2022-12-20T21:35:07.167Z,4.71
2022-12-20T21:37:33.872Z,4.89
2022-12-20T21:40:00.530Z,4.96
2022-12-20T21:42:27.220Z,4.99
2022-12-20T21:44:53.899Z,5.00
2022-12-20T21:47:20.547Z,4.82
2022-12-20T21:49:47.256Z,4.60
2022-12-20T21:52:14.056Z,4.39
2022-12-20T21:54:40.753Z,4.50
2022-12-20T21:57:07.363Z,4.68
2022-12-20T21:59:34.047Z,4.59
2022-12-20T22:02:01.013Z,4.84
2022-12-20T22:04:28.106Z,4.91
2022-12-20T22:06:54.774Z,4.91
2022-12-20T22:09:21.402Z,4.89
2022-12-20T22:11:48.083Z,4.79
2022-12-20T22:14:14.748Z,4.61
2022-12-20T22:16:41.505Z,4.69
2022-12-20T22:19:08.276Z,4.85
2022-12-20T22:21:35.043Z,4.68
2022-12-20T22:24:01.732Z,4.97
2022-12-20T22:26:28.598Z,4.95
2022-12-20T22:28:55.275Z,5.07
2022-12-20T22:31:21.983Z,5.10
2022-12-20T22:33:48.717Z,5.11
2022-12-20T22:36:15.353Z,5.17
2022-12-20T22:38:42.249Z,5.20
2022-12-20T22:41:08.914Z,5.24
2022-12-20T22:43:35.582Z,5.29
2022-12-20T22:48:46.549Z,5.23
2022-12-20T22:51:13.191Z,5.13
2022-12-20T22:53:39.781Z,5.08
2022-12-20T22:56:06.375Z,4.93
2022-12-20T22:58:32.945Z,4.93
2022-12-20T23:00:59.584Z,5.06
2022-12-20T23:03:26.258Z,5.05
2022-12-20T23:05:52.990Z,4.77
2022-12-20T23:08:19.596Z,4.72
2022-12-20T23:10:46.231Z,4.56
2022-12-20T23:13:12.874Z,4.82
2022-12-20T23:15:39.482Z,4.96
2022-12-20T23:18:06.067Z,5.15
2022-12-20T23:20:32.664Z,4.92
2022-12-20T23:22:59.288Z,5.02
2022-12-20T23:25:26.086Z,5.03
2022-12-20T23:27:52.776Z,5.14
2022-12-20T23:30:19.592Z,5.16
2022-12-20T23:32:46.188Z,5.10
2022-12-20T23:35:13.059Z,5.24
2022-12-20T23:37:39.902Z,5.17
2022-12-20T23:40:06.717Z,5.15
2022-12-20T23:42:33.356Z,5.15
2022-12-20T23:44:59.934Z,5.20
2022-12-20T23:47:26.561Z,5.21
2022-12-20T23:49:53.290Z,5.30
2022-12-20T23:52:19.955Z,5.29
2022-12-20T23:54:46.582Z,5.25
2022-12-20T23:57:13.186Z,5.11
2022-12-20T23:59:39.915Z,4.82
